Terminal Aerodrome Forecast
Issued by NWS

Home | Current Version | Previous Version | Text Only | Print | Product List | Glossary On
Versions: 1 2 3 4 5 6 7 8 9 10 11 12 13
000
FTUS44 KEWX 301720
TAFSSF
TAF
KSSF 301720Z 3018/3118 11005KT P6SM SCT100
     FM310900 18006KT P6SM SCT015 BKN035
     FM311600 16008KT P6SM BKN250=

USA.gov is the U.S. government's official web portal to all federal, state and local government web resources and services.